createdAt,value
2019-04-22T00:02:00.473Z,10.27
2019-04-22T00:04:33.744Z,8.63
2019-04-22T00:07:19.721Z,9.00
2019-04-22T00:09:54.935Z,8.83
2019-04-22T00:12:19.646Z,9.60
2019-04-22T00:14:50.845Z,8.37
2019-04-22T00:17:30.086Z,7.47
2019-04-22T00:20:03.063Z,9.47
2019-04-22T00:25:03.485Z,7.33
2019-04-22T00:27:35.640Z,7.27
2019-04-22T00:32:30.542Z,7.00
2019-04-22T00:35:00.560Z,7.20
2019-04-22T00:37:36.272Z,6.87
2019-04-22T00:40:07.246Z,6.70
2019-04-22T00:42:45.641Z,6.87
2019-04-22T00:45:11.749Z,5.57
2019-04-22T00:47:41.467Z,6.20
2019-04-22T00:52:50.887Z,5.40
2019-04-22T00:55:23.177Z,6.67
2019-04-22T00:57:51.982Z,14.77
2019-04-22T01:00:18.337Z,9.70
2019-04-22T01:05:25.638Z,7.60
2019-04-22T01:07:49.902Z,6.77
2019-04-22T01:10:28.790Z,6.57
2019-04-22T01:12:49.980Z,6.10
2019-04-22T01:15:30.377Z,7.43
2019-04-22T01:17:57.301Z,7.80
2019-04-22T01:22:59.062Z,8.00
2019-04-22T01:25:26.409Z,10.23
2019-04-22T01:27:54.757Z,8.97
2019-04-22T01:30:21.058Z,9.53
2019-04-22T01:32:43.953Z,10.17
2019-04-22T01:35:26.306Z,10.10
2019-04-22T01:38:00.024Z,9.63
2019-04-22T01:40:38.504Z,10.63
2019-04-22T01:43:19.921Z,9.90
2019-04-22T01:45:39.419Z,9.73
2019-04-22T01:48:16.150Z,12.47
2019-04-22T01:50:48.519Z,10.97
2019-04-22T01:53:11.659Z,11.13
2019-04-22T01:55:46.935Z,9.50
2019-04-22T01:58:11.204Z,11.63
2019-04-22T02:00:53.462Z,11.20
2019-04-22T02:03:17.528Z,10.00
2019-04-22T02:05:50.764Z,10.73
2019-04-22T02:08:36.475Z,15.50
2019-04-22T02:11:07.914Z,13.77
2019-04-22T02:16:15.196Z,12.03
2019-04-22T02:21:07.320Z,11.33
2019-04-22T02:23:47.140Z,12.30
2019-04-22T02:26:18.991Z,11.50
2019-04-22T02:28:55.102Z,13.03
2019-04-22T02:46:43.030Z,13.87
2019-04-22T02:49:11.348Z,14.20
2019-04-22T02:54:22.251Z,13.77
2019-04-22T02:59:14.382Z,12.00
2019-04-22T03:01:39.585Z,11.07
2019-04-22T03:06:34.942Z,10.13
2019-04-22T03:14:06.945Z,8.73
2019-04-22T03:19:26.470Z,8.07
2019-04-22T03:21:36.674Z,7.90
2019-04-22T03:24:23.549Z,7.90
2019-04-22T03:29:17.949Z,7.60
2019-04-22T03:37:20.557Z,7.60
2019-04-22T03:44:46.711Z,7.00
2019-04-22T03:49:56.367Z,7.00
2019-04-22T03:59:41.373Z,5.90
2019-04-22T04:02:29.345Z,6.40
2019-04-22T04:04:39.318Z,5.70
2019-04-22T04:12:21.549Z,6.17
2019-04-22T04:17:26.236Z,13.70
2019-04-22T04:20:06.376Z,11.47
2019-04-22T04:22:30.727Z,10.97
2019-04-22T04:30:13.881Z,10.70
2019-04-22T04:37:40.725Z,10.77
2019-04-22T04:40:07.890Z,10.47
2019-04-22T04:47:43.636Z,10.77
2019-04-22T04:50:12.091Z,10.23
2019-04-22T04:52:57.689Z,10.20
2019-04-22T04:55:09.707Z,10.97
2019-04-22T04:57:52.070Z,10.07
2019-04-22T05:07:44.225Z,12.40
2019-04-22T05:10:29.333Z,11.30
2019-04-22T05:15:19.251Z,9.67
2019-04-22T05:17:54.658Z,10.60
2019-04-22T05:20:32.084Z,9.20
2019-04-22T05:22:39.871Z,10.10
2019-04-22T05:25:13.034Z,9.97
2019-04-22T05:30:23.402Z,8.73
2019-04-22T05:32:44.568Z,9.50
2019-04-22T05:35:14.315Z,10.77
2019-04-22T05:37:50.320Z,10.80
2019-04-22T05:40:22.106Z,11.17
2019-04-22T05:42:49.456Z,9.10
2019-04-22T05:45:19.122Z,9.23
2019-04-22T05:47:52.062Z,8.70
2019-04-22T05:50:18.691Z,10.67
2019-04-22T05:52:57.382Z,10.27
2019-04-22T05:55:33.317Z,10.57
2019-04-22T05:57:59.688Z,10.73
2019-04-22T06:03:12.278Z,14.10
2019-04-22T06:05:34.392Z,13.33
2019-04-22T06:08:06.672Z,14.27
2019-04-22T06:13:06.597Z,11.73
2019-04-22T06:15:40.341Z,12.27
2019-04-22T06:23:30.673Z,9.47
2019-04-22T06:26:04.880Z,10.60
2019-04-22T06:28:40.678Z,9.40
2019-04-22T06:30:57.411Z,10.17
2019-04-22T06:33:27.403Z,10.47
2019-04-22T06:38:37.578Z,13.23
2019-04-22T06:41:07.336Z,13.73
2019-04-22T06:46:00.760Z,12.90
2019-04-22T06:48:33.105Z,11.83
2019-04-22T06:51:00.534Z,12.33
2019-04-22T06:53:34.434Z,12.00
2019-04-22T06:56:04.857Z,12.03
2019-04-22T06:58:39.509Z,12.77
2019-04-22T07:01:09.519Z,12.30
2019-04-22T07:06:12.644Z,12.20
2019-04-22T07:09:07.844Z,11.50
2019-04-22T07:11:05.748Z,9.80
2019-04-22T07:14:01.618Z,10.57
2019-04-22T07:16:23.336Z,11.43
2019-04-22T07:19:05.952Z,10.27
2019-04-22T07:21:12.589Z,10.50
2019-04-22T07:24:20.157Z,10.13
2019-04-22T07:28:49.040Z,17.27
2019-04-22T07:31:21.076Z,11.23
2019-04-22T07:33:51.753Z,10.30
2019-04-22T07:36:45.694Z,10.57
2019-04-22T07:38:56.521Z,12.33
2019-04-22T07:41:27.072Z,9.73
2019-04-22T07:46:50.158Z,10.07
2019-04-22T07:48:58.949Z,10.50
2019-04-22T07:51:41.096Z,10.53
2019-04-22T07:54:01.319Z,10.70
2019-04-22T07:56:40.558Z,10.00
2019-04-22T07:59:03.714Z,10.53
2019-04-22T08:01:33.755Z,10.30
2019-04-22T08:04:21.673Z,10.30
2019-04-22T08:06:38.702Z,9.23
2019-04-22T08:09:16.709Z,9.83
2019-04-22T08:11:51.303Z,10.27
2019-04-22T08:14:16.207Z,9.80
2019-04-22T08:16:46.615Z,10.17
2019-04-22T08:19:15.838Z,9.87
2019-04-22T08:21:49.426Z,9.67
2019-04-22T08:24:14.709Z,10.27
2019-04-22T08:26:45.397Z,9.63
2019-04-22T08:29:20.215Z,9.73
2019-04-22T08:34:21.249Z,9.27
2019-04-22T08:37:22.818Z,8.27
2019-04-22T08:41:43.538Z,9.70
2019-04-22T08:44:49.686Z,9.07
2019-04-22T08:49:39.102Z,7.83
2019-04-22T08:52:01.335Z,8.97
2019-04-22T08:54:31.093Z,8.33
2019-04-22T08:57:06.425Z,8.20
2019-04-22T08:59:28.323Z,7.70
2019-04-22T09:02:06.263Z,9.33
2019-04-22T09:04:31.235Z,8.07
2019-04-22T09:09:37.887Z,8.40
2019-04-22T09:12:15.943Z,8.23
2019-04-22T09:14:41.628Z,8.10
2019-04-22T09:17:14.627Z,8.50
2019-04-22T09:19:44.109Z,8.40
2019-04-22T09:22:17.570Z,8.33
2019-04-22T09:29:43.153Z,7.43
2019-04-22T09:32:18.900Z,7.70
2019-04-22T09:34:50.217Z,7.40
2019-04-22T09:37:26.918Z,7.20
2019-04-22T09:40:00.925Z,7.10
2019-04-22T09:42:24.085Z,7.03
2019-04-22T09:44:55.523Z,7.50
2019-04-22T09:47:29.679Z,7.50
2019-04-22T09:52:28.111Z,7.00
2019-04-22T09:55:08.315Z,6.57
2019-04-22T10:00:05.755Z,6.57
2019-04-22T10:02:41.269Z,6.40
2019-04-22T10:05:07.582Z,6.60
2019-04-22T10:07:31.833Z,6.47
2019-04-22T10:10:09.694Z,6.50
2019-04-22T10:12:40.697Z,6.43
2019-04-22T10:15:11.319Z,6.47
2019-04-22T10:17:39.693Z,6.27
2019-04-22T10:20:10.552Z,6.80
2019-04-22T10:25:14.520Z,6.83
2019-04-22T10:27:51.418Z,6.77
2019-04-22T10:30:33.262Z,6.50
2019-04-22T10:32:42.026Z,6.10
2019-04-22T10:35:12.276Z,6.40
2019-04-22T10:37:38.677Z,6.40
2019-04-22T10:40:13.705Z,5.77
2019-04-22T10:42:43.618Z,5.83
2019-04-22T10:45:14.501Z,6.30
2019-04-22T10:47:45.751Z,6.07
2019-04-22T10:50:18.482Z,6.27
2019-04-22T10:52:47.957Z,6.50
2019-04-22T10:55:17.580Z,5.87
2019-04-22T10:57:46.950Z,6.10
2019-04-22T11:00:17.688Z,5.70
2019-04-22T11:02:47.839Z,5.10
2019-04-22T11:05:17.491Z,4.80
2019-04-22T11:07:53.947Z,4.80
2019-04-22T11:10:35.361Z,5.27
2019-04-22T11:12:49.442Z,5.13
2019-04-22T11:15:19.005Z,5.20
2019-04-22T11:17:49.537Z,5.50
2019-04-22T11:20:21.653Z,5.20
2019-04-22T11:22:52.960Z,5.00
2019-04-22T11:25:23.613Z,5.13
2019-04-22T11:27:53.748Z,4.90
2019-04-22T11:30:26.378Z,4.93
2019-04-22T11:32:55.973Z,5.20
2019-04-22T11:35:25.904Z,5.50
2019-04-22T11:37:56.797Z,4.90
2019-04-22T11:40:34.964Z,4.80
2019-04-22T11:43:01.858Z,4.70
2019-04-22T11:45:33.264Z,4.97
2019-04-22T11:48:03.649Z,4.73
2019-04-22T11:50:33.581Z,5.07
2019-04-22T11:53:03.057Z,4.93
2019-04-22T11:55:32.911Z,5.10
2019-04-22T11:58:03.137Z,5.30
2019-04-22T12:00:34.983Z,4.70
2019-04-22T12:03:05.225Z,5.20
2019-04-22T12:05:34.882Z,4.83
2019-04-22T12:08:04.967Z,5.20
2019-04-22T12:10:42.499Z,4.97
2019-04-22T12:13:06.310Z,5.00
2019-04-22T12:15:37.329Z,5.00
2019-04-22T12:18:09.006Z,5.10
2019-04-22T12:20:39.198Z,5.00
2019-04-22T12:23:09.403Z,4.67
2019-04-22T12:25:48.649Z,4.77
2019-04-22T12:28:11.218Z,5.00
2019-04-22T12:30:41.719Z,4.90
2019-04-22T12:33:14.567Z,4.90
2019-04-22T12:35:42.428Z,6.00
2019-04-22T12:38:13.148Z,5.57
2019-04-22T12:40:52.285Z,5.27
2019-04-22T12:43:16.140Z,5.63
2019-04-22T12:45:45.216Z,5.50
2019-04-22T12:48:15.114Z,6.10
2019-04-22T12:50:47.772Z,5.70
2019-04-22T12:53:18.778Z,4.90
2019-04-22T12:55:48.052Z,5.30
2019-04-22T12:58:18.164Z,5.27
2019-04-22T13:00:48.421Z,6.10
2019-04-22T13:03:18.258Z,6.00
2019-04-22T13:05:49.323Z,5.90
2019-04-22T13:08:20.012Z,6.10
2019-04-22T13:10:58.392Z,6.20
2019-04-22T13:13:20.896Z,5.87
2019-04-22T13:15:53.007Z,5.93
2019-04-22T13:18:31.766Z,5.90
2019-04-22T13:20:54.776Z,5.33
2019-04-22T13:23:25.546Z,5.63
2019-04-22T13:25:55.080Z,5.43
2019-04-22T13:28:25.189Z,5.50
2019-04-22T13:30:54.863Z,5.80
2019-04-22T13:33:25.036Z,6.03
2019-04-22T13:35:54.556Z,5.80
2019-04-22T13:38:24.935Z,5.83
2019-04-22T13:41:07.064Z,5.30
2019-04-22T13:43:27.063Z,5.33
2019-04-22T13:45:56.663Z,5.27
2019-04-22T13:48:49.900Z,5.03
2019-04-22T13:56:22.262Z,6.50
2019-04-22T13:58:44.817Z,5.87
2019-04-22T14:01:04.856Z,5.40
2019-04-22T14:03:46.786Z,5.33
2019-04-22T14:06:16.623Z,4.80
2019-04-22T14:08:47.147Z,4.90
2019-04-22T14:11:27.729Z,5.30
2019-04-22T14:13:50.070Z,5.20
2019-04-22T14:16:19.854Z,5.70
2019-04-22T14:18:49.800Z,5.83
2019-04-22T14:21:20.896Z,5.90
2019-04-22T14:23:51.026Z,5.53
2019-04-22T14:26:20.424Z,5.60
2019-04-22T14:28:50.129Z,5.30
2019-04-22T14:31:20.337Z,5.50
2019-04-22T14:33:53.626Z,5.70
2019-04-22T14:36:21.428Z,5.50
2019-04-22T14:38:52.308Z,5.60
2019-04-22T14:41:42.331Z,5.60
2019-04-22T14:45:05.389Z,5.70
2019-04-22T14:46:58.589Z,5.90
2019-04-22T14:49:21.894Z,5.37
2019-04-22T14:51:53.290Z,6.80
2019-04-22T14:54:13.677Z,5.70
2019-04-22T14:56:30.439Z,5.77
2019-04-22T14:59:00.775Z,5.87
2019-04-22T15:01:30.804Z,5.67
2019-04-22T15:04:00.792Z,5.57
2019-04-22T15:06:31.757Z,5.73
2019-04-22T15:09:01.894Z,5.90
2019-04-22T15:11:43.794Z,5.90
2019-04-22T15:14:03.259Z,6.20
2019-04-22T15:16:38.174Z,6.03
2019-04-22T15:19:27.570Z,6.87
2019-04-22T15:21:58.638Z,7.60
2019-04-22T15:24:29.479Z,8.00
2019-04-22T15:27:00.725Z,7.70
2019-04-22T15:29:31.618Z,7.50
2019-04-22T15:32:01.203Z,7.30
2019-04-22T15:34:30.848Z,7.50
2019-04-22T15:37:04.306Z,7.10
2019-04-22T15:39:41.550Z,7.60
2019-04-22T15:42:20.157Z,7.40
2019-04-22T15:44:44.151Z,7.47
2019-04-22T15:47:15.100Z,7.57
2019-04-22T15:49:45.902Z,7.90
2019-04-22T15:52:16.678Z,7.93
2019-04-22T15:54:49.978Z,8.07
2019-04-22T15:57:17.425Z,7.63
2019-04-22T16:00:05.303Z,7.07
2019-04-22T16:02:19.392Z,7.33
2019-04-22T16:04:48.893Z,6.80
2019-04-22T16:07:21.571Z,6.93
2019-04-22T16:09:49.912Z,7.17
2019-04-22T16:12:27.953Z,7.10
2019-04-22T16:14:56.479Z,7.50
2019-04-22T16:17:22.509Z,7.60
2019-04-22T16:19:53.222Z,8.23
2019-04-22T16:22:25.080Z,7.50
2019-04-22T16:24:58.311Z,7.33
2019-04-22T16:27:30.252Z,7.57
2019-04-22T16:30:01.344Z,8.20
2019-04-22T16:32:31.970Z,7.50
2019-04-22T16:35:01.684Z,7.90
2019-04-22T16:37:31.041Z,8.17
2019-04-22T16:40:03.035Z,7.83
2019-04-22T16:42:40.080Z,7.83
2019-04-22T16:45:04.549Z,8.10
2019-04-22T16:47:35.438Z,8.33
2019-04-22T16:50:08.082Z,8.23
2019-04-22T16:52:37.640Z,8.40
2019-04-22T16:55:08.727Z,8.40
2019-04-22T16:57:39.728Z,7.90
2019-04-22T17:00:11.355Z,8.07
2019-04-22T17:02:45.218Z,7.83
2019-04-22T17:05:17.897Z,8.10
2019-04-22T17:07:48.091Z,8.60
2019-04-22T17:10:17.948Z,7.93
2019-04-22T17:12:57.637Z,7.80
2019-04-22T17:15:20.369Z,8.10
2019-04-22T17:17:51.499Z,8.60
2019-04-22T17:20:21.194Z,8.30
2019-04-22T17:22:51.587Z,8.10
2019-04-22T17:25:22.483Z,7.87
2019-04-22T17:27:52.105Z,8.40
2019-04-22T17:30:22.247Z,8.23
2019-04-22T17:32:52.487Z,8.50
2019-04-22T17:35:22.462Z,9.10
2019-04-22T17:38:04.181Z,9.30
2019-04-22T17:40:40.866Z,8.40
2019-04-22T17:43:26.551Z,9.07
2019-04-22T17:46:01.643Z,8.70
2019-04-22T17:48:40.767Z,8.20
2019-04-22T17:51:26.902Z,8.40
2019-04-22T17:53:56.693Z,8.73
2019-04-22T17:56:24.842Z,8.50
2019-04-22T17:58:51.335Z,9.17
2019-04-22T18:01:17.925Z,9.23
2019-04-22T18:03:37.458Z,8.93
2019-04-22T18:06:10.350Z,9.10
2019-04-22T18:08:50.790Z,9.83
2019-04-22T18:11:33.874Z,8.70
2019-04-22T18:14:11.577Z,9.17
2019-04-22T18:16:30.535Z,9.57
2019-04-22T18:19:00.525Z,9.90
2019-04-22T18:21:28.885Z,9.10
2019-04-22T18:23:54.099Z,9.30
2019-04-22T18:26:32.129Z,9.20
2019-04-22T18:29:07.517Z,9.43
2019-04-22T18:31:30.763Z,9.53
2019-04-22T18:34:00.236Z,9.90
2019-04-22T18:36:33.252Z,10.00
2019-04-22T18:39:11.468Z,10.27
2019-04-22T18:41:40.940Z,10.73
2019-04-22T18:44:16.903Z,10.37
2019-04-22T18:46:42.071Z,9.80
2019-04-22T18:49:10.968Z,10.17
2019-04-22T18:51:46.228Z,10.87
2019-04-22T18:54:28.122Z,9.77
2019-04-22T18:56:59.557Z,9.80
2019-04-22T18:59:18.561Z,10.23
2019-04-22T19:01:43.795Z,9.63
2019-04-22T19:04:20.052Z,10.23
2019-04-22T19:07:07.395Z,9.70
2019-04-22T19:09:43.754Z,9.27
2019-04-22T19:12:28.717Z,9.37
2019-04-22T19:14:45.424Z,9.67
2019-04-22T19:17:21.456Z,9.43
2019-04-22T19:19:43.246Z,9.07
2019-04-22T19:22:09.736Z,8.93
2019-04-22T19:24:40.312Z,9.50
2019-04-22T19:27:16.078Z,8.87
2019-04-22T19:29:46.775Z,9.03
2019-04-22T19:32:14.765Z,9.13
2019-04-22T19:34:51.099Z,9.47
2019-04-22T19:37:17.323Z,8.60
2019-04-22T19:40:00.924Z,8.93
2019-04-22T19:42:30.485Z,8.67
2019-04-22T19:44:50.884Z,9.00
2019-04-22T19:49:59.497Z,8.60
2019-04-22T19:52:29.049Z,8.73
2019-04-22T19:55:03.445Z,9.37
2019-04-22T19:57:26.566Z,9.00
2019-04-22T20:00:17.097Z,9.47
2019-04-22T20:02:51.399Z,9.37
2019-04-22T20:05:43.604Z,9.20
2019-04-22T20:08:14.316Z,9.57
2019-04-22T20:10:42.059Z,9.37
2019-04-22T20:13:19.956Z,9.50
2019-04-22T20:15:41.133Z,9.90
2019-04-22T20:18:32.824Z,9.80
2019-04-22T20:20:58.626Z,10.23
2019-04-22T20:23:29.105Z,9.60
2019-04-22T20:26:00.481Z,9.93
2019-04-22T20:28:39.152Z,9.83
2019-04-22T20:31:09.163Z,10.33
2019-04-22T20:33:47.628Z,10.07
2019-04-22T20:36:12.570Z,9.83
2019-04-22T20:38:39.893Z,10.30
2019-04-22T20:41:08.812Z,9.70
2019-04-22T20:43:46.949Z,10.30
2019-04-22T20:46:19.221Z,10.50
2019-04-22T20:48:48.408Z,10.30
2019-04-22T20:51:24.423Z,10.43
2019-04-22T20:53:52.315Z,10.07
2019-04-22T20:56:21.925Z,10.13
2019-04-22T20:58:53.990Z,10.00
2019-04-22T21:01:21.086Z,9.87
2019-04-22T21:03:45.081Z,10.13
2019-04-22T21:06:22.846Z,9.97
2019-04-22T21:09:00.964Z,9.70
2019-04-22T21:11:29.594Z,9.90
2019-04-22T21:13:57.335Z,9.83
2019-04-22T21:16:34.770Z,9.90
2019-04-22T21:18:56.567Z,9.90
2019-04-22T21:21:31.655Z,9.83
2019-04-22T21:23:57.258Z,10.37
2019-04-22T21:26:36.536Z,10.33
2019-04-22T21:29:03.685Z,10.47
2019-04-22T21:31:38.630Z,10.23
2019-04-22T21:34:05.237Z,9.90
2019-04-22T21:36:41.561Z,9.57
2019-04-22T21:39:08.136Z,10.10
2019-04-22T21:41:44.062Z,9.40
2019-04-22T21:44:12.422Z,9.43
2019-04-22T21:46:50.939Z,10.07
2019-04-22T21:49:19.601Z,9.83
2019-04-22T21:51:49.607Z,9.77
2019-04-22T21:54:21.839Z,9.70
2019-04-22T21:57:09.219Z,9.53
2019-04-22T21:59:31.011Z,9.13
2019-04-22T22:02:05.627Z,9.90
2019-04-22T22:04:32.193Z,9.80
2019-04-22T22:06:55.369Z,9.70
2019-04-22T22:09:39.420Z,9.80
2019-04-22T22:12:02.404Z,9.80
2019-04-22T22:14:39.821Z,9.70
2019-04-22T22:17:01.327Z,9.60
2019-04-22T22:19:44.460Z,9.53
2019-04-22T22:22:30.201Z,9.60
2019-04-22T22:24:46.378Z,9.80
2019-04-22T22:27:17.207Z,9.17
2019-04-22T22:32:16.542Z,9.67
2019-04-22T22:34:50.580Z,9.33
2019-04-22T22:37:12.104Z,9.07
2019-04-22T22:39:40.419Z,9.27
2019-04-22T22:42:01.778Z,9.43
2019-04-22T22:44:36.824Z,9.47
2019-04-22T22:47:18.122Z,9.27
2019-04-22T22:50:00.740Z,9.07
2019-04-22T22:52:45.222Z,8.83
2019-04-22T22:54:57.612Z,9.33
2019-04-22T22:57:33.113Z,9.20
2019-04-22T22:59:55.453Z,8.97
2019-04-22T23:02:28.788Z,8.87
2019-04-22T23:05:03.839Z,9.00
2019-04-22T23:07:37.463Z,9.30
2019-04-22T23:10:01.051Z,9.00
2019-04-22T23:12:46.474Z,8.83
2019-04-22T23:15:04.684Z,8.50
2019-04-22T23:17:22.478Z,9.07
2019-04-22T23:19:52.106Z,8.70
2019-04-22T23:22:28.368Z,8.10
2019-04-22T23:25:17.340Z,9.30
2019-04-22T23:27:55.301Z,8.47
2019-04-22T23:30:32.280Z,8.40
2019-04-22T23:33:13.282Z,8.87
2019-04-22T23:35:46.657Z,9.10
2019-04-22T23:38:20.668Z,8.70
2019-04-22T23:40:54.213Z,8.63
2019-04-22T23:43:28.909Z,8.43
2019-04-22T23:46:08.257Z,8.10
2019-04-22T23:48:29.058Z,8.70
2019-04-22T23:51:12.073Z,8.47
2019-04-22T23:56:07.856Z,8.30
2019-04-22T23:59:04.741Z,8.20
